createdAt,value
2019-06-10T00:00:42.033Z,19.09
2019-06-10T00:03:11.719Z,19.12
2019-06-10T00:05:41.438Z,19.10
2019-06-10T00:08:11.733Z,19.11
2019-06-10T00:10:42.105Z,19.04
2019-06-10T00:13:12.088Z,19.02
2019-06-10T00:15:41.480Z,18.99
2019-06-10T00:18:32.825Z,18.97
2019-06-10T00:20:41.226Z,18.93
2019-06-10T00:23:12.210Z,18.93
2019-06-10T00:25:41.485Z,18.87
2019-06-10T00:28:12.118Z,18.86
2019-06-10T00:30:41.392Z,18.90
2019-06-10T00:33:12.623Z,18.84
2019-06-10T00:35:41.365Z,18.84
2019-06-10T00:38:13.824Z,18.80
2019-06-10T00:40:41.653Z,18.75
2019-06-10T00:43:13.190Z,18.70
2019-06-10T00:45:41.249Z,18.64
2019-06-10T00:48:21.647Z,18.71
2019-06-10T00:50:41.519Z,18.75
2019-06-10T00:53:14.091Z,18.71
2019-06-10T00:55:41.736Z,18.66
2019-06-10T00:58:13.692Z,18.57
2019-06-10T01:00:41.792Z,18.67
2019-06-10T01:03:13.507Z,18.66
2019-06-10T01:05:42.280Z,18.62
2019-06-10T01:08:13.852Z,18.58
2019-06-10T01:10:43.873Z,18.54
2019-06-10T01:13:14.039Z,18.54
2019-06-10T01:15:42.818Z,18.55
2019-06-10T01:18:30.261Z,18.55
2019-06-10T01:20:41.825Z,18.53
2019-06-10T01:23:13.805Z,18.55
2019-06-10T01:25:42.203Z,18.58
2019-06-10T01:28:14.595Z,18.68
2019-06-10T01:30:41.985Z,18.66
2019-06-10T01:33:12.569Z,18.67
2019-06-10T01:35:41.681Z,18.71
2019-06-10T01:38:12.828Z,18.71
2019-06-10T01:40:42.331Z,18.63
2019-06-10T01:43:14.075Z,18.65
2019-06-10T01:45:42.273Z,18.64
2019-06-10T01:48:12.140Z,18.60
2019-06-10T01:50:41.613Z,18.56
2019-06-10T01:53:13.777Z,18.53
2019-06-10T01:55:41.805Z,18.50
2019-06-10T01:58:14.430Z,18.41
2019-06-10T02:01:01.305Z,18.47
2019-06-10T02:03:31.347Z,18.53
2019-06-10T02:06:01.453Z,18.52
2019-06-10T02:08:31.656Z,18.48
2019-06-10T02:11:01.240Z,18.41
2019-06-10T02:13:33.022Z,18.38
2019-06-10T02:16:05.526Z,18.44
2019-06-10T02:18:34.186Z,18.41
2019-06-10T02:21:02.827Z,18.41
2019-06-10T02:23:31.824Z,18.41
2019-06-10T02:26:01.388Z,18.44
2019-06-10T02:28:31.751Z,18.44
2019-06-10T02:31:03.472Z,18.46
2019-06-10T02:33:36.178Z,18.47
2019-06-10T02:36:04.261Z,18.48
2019-06-10T02:38:38.657Z,18.49
2019-06-10T02:41:04.338Z,18.50
2019-06-10T02:43:37.391Z,18.51
2019-06-10T02:46:05.024Z,18.42
2019-06-10T02:48:35.380Z,18.46
2019-06-10T02:51:06.340Z,18.47
2019-06-10T02:53:37.010Z,18.40
2019-06-10T02:56:07.207Z,18.38
2019-06-10T02:58:38.965Z,18.38
2019-06-10T03:01:06.702Z,18.40
2019-06-10T03:03:43.715Z,18.40
2019-06-10T03:06:08.510Z,18.45
2019-06-10T03:08:36.895Z,18.44
2019-06-10T03:11:06.018Z,18.36
2019-06-10T03:13:34.985Z,18.31
2019-06-10T03:16:13.013Z,18.23
2019-06-10T03:18:43.422Z,18.20
2019-06-10T03:21:12.439Z,18.19
2019-06-10T03:23:42.662Z,18.27
2019-06-10T03:26:12.340Z,18.22
2019-06-10T03:28:42.724Z,18.24
2019-06-10T03:31:15.128Z,18.31
2019-06-10T03:33:47.289Z,18.39
2019-06-10T03:36:12.613Z,18.46
2019-06-10T03:38:43.320Z,18.54
2019-06-10T03:41:12.490Z,18.53
2019-06-10T03:43:42.966Z,18.61
2019-06-10T03:46:13.655Z,18.70
2019-06-10T03:48:43.270Z,18.73
2019-06-10T03:51:12.750Z,18.79
2019-06-10T03:53:42.553Z,18.90
2019-06-10T03:56:12.848Z,18.97
2019-06-10T03:58:43.020Z,19.09
2019-06-10T04:01:12.435Z,19.17
2019-06-10T04:03:42.726Z,19.28
2019-06-10T04:06:12.889Z,19.34
2019-06-10T04:08:43.320Z,19.51
2019-06-10T04:11:12.397Z,19.55
2019-06-10T04:13:43.187Z,19.70
2019-06-10T04:16:13.026Z,19.82
2019-06-10T04:18:43.025Z,19.90
2019-06-10T04:21:12.886Z,19.99
2019-06-10T04:23:42.536Z,20.06
2019-06-10T04:26:12.697Z,20.11
2019-06-10T04:28:42.924Z,20.22
2019-06-10T04:31:13.062Z,20.32
2019-06-10T04:33:42.431Z,20.43
2019-06-10T04:36:13.213Z,20.51
2019-06-10T04:38:43.136Z,20.66
2019-06-10T04:41:12.695Z,20.82
2019-06-10T04:43:43.178Z,21.01
2019-06-10T04:46:12.682Z,21.14
2019-06-10T04:48:42.607Z,21.22
2019-06-10T04:51:12.925Z,21.27
2019-06-10T04:53:43.554Z,21.35
2019-06-10T04:56:12.562Z,21.41
2019-06-10T04:58:43.221Z,21.47
2019-06-10T05:01:12.272Z,21.52
2019-06-10T05:03:43.312Z,21.59
2019-06-10T05:06:12.391Z,21.70
2019-06-10T05:08:42.619Z,21.75
2019-06-10T05:11:12.760Z,21.94
2019-06-10T05:13:42.872Z,22.09
2019-06-10T05:16:12.515Z,22.19
2019-06-10T05:18:42.368Z,22.29
2019-06-10T05:21:13.033Z,22.40
2019-06-10T05:23:42.951Z,22.49
2019-06-10T05:26:13.320Z,22.66
2019-06-10T05:28:43.277Z,22.78
2019-06-10T05:31:12.915Z,22.92
2019-06-10T05:33:42.562Z,23.04
2019-06-10T05:36:13.210Z,23.19
2019-06-10T05:38:43.571Z,23.36
2019-06-10T05:41:13.345Z,23.53
2019-06-10T05:43:42.964Z,23.70
2019-06-10T05:46:13.480Z,23.90
2019-06-10T05:48:43.725Z,24.10
2019-06-10T05:51:12.685Z,24.34
2019-06-10T05:53:42.680Z,24.53
2019-06-10T05:56:12.915Z,24.73
2019-06-10T05:58:43.631Z,24.99
2019-06-10T06:01:13.206Z,25.19
2019-06-10T06:03:44.012Z,25.45
2019-06-10T06:06:12.777Z,25.67
2019-06-10T06:08:42.856Z,25.85
2019-06-10T06:11:12.638Z,26.18
2019-06-10T06:13:43.165Z,26.47
2019-06-10T06:16:12.778Z,26.79
2019-06-10T06:18:42.422Z,27.06
2019-06-10T06:21:25.487Z,27.24
2019-06-10T06:23:43.670Z,27.33
2019-06-10T06:26:16.559Z,27.54
2019-06-10T06:28:43.446Z,27.61
2019-06-10T06:31:12.654Z,27.83
2019-06-10T06:33:43.340Z,27.86
2019-06-10T06:36:12.707Z,28.19
2019-06-10T06:38:43.725Z,28.34
2019-06-10T06:41:13.662Z,28.60
2019-06-10T06:43:45.248Z,28.64
2019-06-10T06:46:12.972Z,28.86
2019-06-10T06:48:43.934Z,28.93
2019-06-10T06:51:12.978Z,29.18
2019-06-10T06:53:50.650Z,29.24
2019-06-10T06:56:12.762Z,29.20
2019-06-10T06:58:43.309Z,29.14
2019-06-10T07:01:14.661Z,28.99
2019-06-10T07:03:44.961Z,28.78
2019-06-10T07:06:17.027Z,28.67
2019-06-10T07:09:00.230Z,28.75
2019-06-10T07:11:18.930Z,28.59
2019-06-10T07:13:47.624Z,28.51
2019-06-10T07:16:16.360Z,28.31
2019-06-10T07:18:50.022Z,28.00
2019-06-10T07:21:15.358Z,27.87
2019-06-10T07:23:46.821Z,27.79
2019-06-10T07:26:14.450Z,27.72
2019-06-10T07:28:47.105Z,27.90
2019-06-10T07:31:23.216Z,27.94
2019-06-10T07:33:46.925Z,28.13
2019-06-10T07:36:14.194Z,28.47
2019-06-10T07:38:48.799Z,28.71
2019-06-10T07:41:14.826Z,28.93
2019-06-10T07:43:49.491Z,29.27
2019-06-10T07:46:13.869Z,29.91
2019-06-10T07:48:48.056Z,30.50
2019-06-10T07:51:13.338Z,30.86
2019-06-10T07:53:46.150Z,31.82
2019-06-10T07:56:13.032Z,32.97
2019-06-10T07:58:46.983Z,33.34
2019-06-10T08:01:13.159Z,32.80
2019-06-10T08:03:46.006Z,33.94
2019-06-10T08:06:12.871Z,35.45
2019-06-10T08:08:44.773Z,36.70
2019-06-10T08:11:13.669Z,38.97
2019-06-10T08:13:45.907Z,39.21
2019-06-10T08:16:13.327Z,40.43
2019-06-10T08:19:13.821Z,42.46
2019-06-10T08:21:12.499Z,43.12
2019-06-10T08:23:44.800Z,42.70
2019-06-10T08:26:12.695Z,43.82
2019-06-10T08:28:44.541Z,44.95
2019-06-10T08:31:12.521Z,44.88
2019-06-10T08:33:44.389Z,45.80
2019-06-10T08:36:13.510Z,47.01
2019-06-10T08:38:44.900Z,48.49
2019-06-10T08:41:12.489Z,48.69
2019-06-10T08:43:44.700Z,47.73
2019-06-10T08:46:13.158Z,49.73
2019-06-10T08:48:45.779Z,48.86
2019-06-10T08:51:12.674Z,47.43
2019-06-10T08:53:44.099Z,47.86
2019-06-10T08:56:13.022Z,46.53
2019-06-10T08:58:45.675Z,47.94
2019-06-10T09:01:13.444Z,45.62
2019-06-10T09:03:46.350Z,44.51
2019-06-10T09:06:13.442Z,42.46
2019-06-10T09:08:45.778Z,40.34
2019-06-10T09:11:13.076Z,37.89
2019-06-10T09:13:45.475Z,36.09
2019-06-10T09:16:18.581Z,35.14
2019-06-10T09:18:47.328Z,34.32
2019-06-10T09:21:13.154Z,33.65
2019-06-10T09:23:47.274Z,33.19
2019-06-10T09:26:14.057Z,33.47
2019-06-10T09:28:47.155Z,33.04
2019-06-10T09:31:13.991Z,32.53
2019-06-10T09:33:49.949Z,32.09
2019-06-10T09:36:13.517Z,33.21
2019-06-10T09:38:45.763Z,35.32
2019-06-10T09:41:14.126Z,38.43
2019-06-10T09:43:49.989Z,40.17
2019-06-10T09:46:15.035Z,40.31
2019-06-10T09:48:48.549Z,39.05
2019-06-10T09:51:14.755Z,37.28
2019-06-10T09:53:54.054Z,35.74
2019-06-10T09:56:13.753Z,33.21
2019-06-10T09:58:46.055Z,31.89
2019-06-10T10:01:13.503Z,30.65
2019-06-10T10:03:46.925Z,28.07
2019-06-10T10:06:15.609Z,25.62
2019-06-10T10:08:46.047Z,23.96
2019-06-10T10:11:13.969Z,23.23
2019-06-10T10:13:46.053Z,22.63
2019-06-10T10:16:13.310Z,22.26
2019-06-10T10:18:46.948Z,22.16
2019-06-10T10:21:13.057Z,22.34
2019-06-10T10:23:56.544Z,22.64
2019-06-10T10:26:14.231Z,23.17
2019-06-10T10:28:44.632Z,24.25
2019-06-10T10:31:13.381Z,29.10
2019-06-10T10:33:42.630Z,33.67
2019-06-10T10:36:14.081Z,33.33
2019-06-10T10:38:42.608Z,34.51
2019-06-10T10:41:13.252Z,33.99
2019-06-10T10:43:44.825Z,33.06
2019-06-10T10:46:13.962Z,32.19
2019-06-10T10:48:43.092Z,31.43
2019-06-10T10:51:12.984Z,30.49
2019-06-10T10:53:48.261Z,29.95
2019-06-10T10:56:13.064Z,29.43
2019-06-10T10:58:43.830Z,28.89
2019-06-10T11:01:15.007Z,28.26
2019-06-10T11:03:45.450Z,27.92
2019-06-10T11:06:13.910Z,27.44
2019-06-10T11:08:44.625Z,26.91
2019-06-10T11:11:14.116Z,26.34
2019-06-10T11:13:45.517Z,26.35
2019-06-10T11:16:15.427Z,26.73
2019-06-10T11:18:45.217Z,27.38
2019-06-10T11:21:14.023Z,28.11
2019-06-10T11:23:43.631Z,28.77
2019-06-10T11:26:13.211Z,29.34
2019-06-10T11:28:43.042Z,29.64
2019-06-10T11:31:13.793Z,30.12
2019-06-10T11:33:43.581Z,30.47
2019-06-10T11:36:13.503Z,30.33
2019-06-10T11:38:42.471Z,30.06
2019-06-10T11:41:13.432Z,29.87
2019-06-10T11:43:42.952Z,29.65
2019-06-10T11:46:13.099Z,29.44
2019-06-10T11:48:43.524Z,29.26
2019-06-10T11:51:13.405Z,29.18
2019-06-10T11:53:44.069Z,29.11
2019-06-10T11:56:13.233Z,29.06
2019-06-10T11:58:42.821Z,29.14
2019-06-10T12:01:13.124Z,29.31
2019-06-10T12:03:43.190Z,29.43
2019-06-10T12:06:13.576Z,29.55
2019-06-10T12:08:43.452Z,29.71
2019-06-10T12:11:12.921Z,29.85
2019-06-10T12:13:42.921Z,29.85
2019-06-10T12:17:05.817Z,29.84
2019-06-10T12:18:42.798Z,29.78
2019-06-10T12:21:13.234Z,29.77
2019-06-10T12:23:43.472Z,29.60
2019-06-10T12:26:12.394Z,29.53
2019-06-10T12:28:43.208Z,29.65
2019-06-10T12:31:13.538Z,29.81
2019-06-10T12:33:42.244Z,29.91
2019-06-10T12:36:12.803Z,29.93
2019-06-10T12:38:43.422Z,29.81
2019-06-10T12:41:13.914Z,29.42
2019-06-10T12:43:43.349Z,29.23
2019-06-10T12:46:12.952Z,29.03
2019-06-10T12:48:42.563Z,28.88
2019-06-10T12:51:13.617Z,28.72
2019-06-10T12:53:43.234Z,28.38
2019-06-10T12:56:14.925Z,28.19
2019-06-10T12:58:43.395Z,28.32
2019-06-10T13:01:12.637Z,28.42
2019-06-10T13:03:43.751Z,28.56
2019-06-10T13:06:13.075Z,28.20
2019-06-10T13:08:43.685Z,28.66
2019-06-10T13:11:14.965Z,28.94
2019-06-10T13:13:44.055Z,29.10
2019-06-10T13:16:14.277Z,29.38
2019-06-10T13:18:43.284Z,29.66
2019-06-10T13:21:16.855Z,29.90
2019-06-10T13:23:43.135Z,30.09
2019-06-10T13:26:15.971Z,30.07
2019-06-10T13:28:44.320Z,29.96
2019-06-10T13:31:14.010Z,29.72
2019-06-10T13:33:43.241Z,29.36
2019-06-10T13:36:12.714Z,28.91
2019-06-10T13:38:42.870Z,28.26
2019-06-10T13:41:11.771Z,27.39
2019-06-10T13:43:43.210Z,26.47
2019-06-10T13:46:11.123Z,25.81
2019-06-10T13:48:39.924Z,25.30
2019-06-10T13:51:11.884Z,25.09
2019-06-10T13:53:39.025Z,24.99
2019-06-10T13:56:31.991Z,24.89
2019-06-10T13:58:38.025Z,24.97
2019-06-10T14:01:10.061Z,24.98
2019-06-10T14:03:37.123Z,24.88
2019-06-10T14:06:21.185Z,24.92
2019-06-10T14:08:36.705Z,25.05
2019-06-10T14:11:07.591Z,25.18
2019-06-10T14:13:35.694Z,25.10
2019-06-10T14:16:05.595Z,25.19
2019-06-10T14:18:35.171Z,25.40
2019-06-10T14:21:07.938Z,25.55
2019-06-10T14:23:34.957Z,25.72
2019-06-10T14:26:05.928Z,25.86
2019-06-10T14:28:40.636Z,25.75
2019-06-10T14:31:24.233Z,25.89
2019-06-10T14:33:34.833Z,26.13
2019-06-10T14:36:05.451Z,26.26
2019-06-10T14:38:34.036Z,26.45
2019-06-10T14:41:04.768Z,26.61
2019-06-10T14:43:33.454Z,26.68
2019-06-10T14:46:02.032Z,26.71
2019-06-10T14:48:33.516Z,26.79
2019-06-10T14:51:03.319Z,26.84
2019-06-10T14:53:33.744Z,26.85
2019-06-10T14:56:03.858Z,26.89
2019-06-10T14:58:32.479Z,26.85
2019-06-10T15:01:04.302Z,26.61
2019-06-10T15:03:32.772Z,26.47
2019-06-10T15:06:03.166Z,26.24
2019-06-10T15:08:32.345Z,26.09
2019-06-10T15:11:01.168Z,25.98
2019-06-10T15:13:32.533Z,25.89
2019-06-10T15:16:04.292Z,25.89
2019-06-10T15:18:33.020Z,25.92
2019-06-10T15:21:02.780Z,25.92
2019-06-10T15:23:32.428Z,25.95
2019-06-10T15:26:02.817Z,25.94
2019-06-10T15:28:31.779Z,25.85
2019-06-10T15:31:02.795Z,25.92
2019-06-10T15:33:32.679Z,25.94
2019-06-10T15:36:02.325Z,25.91
2019-06-10T15:38:32.770Z,25.85
2019-06-10T15:41:01.715Z,25.75
2019-06-10T15:43:32.877Z,25.65
2019-06-10T15:46:03.167Z,25.50
2019-06-10T15:48:31.300Z,25.38
2019-06-10T15:50:59.951Z,25.28
2019-06-10T15:53:28.591Z,25.20
2019-06-10T15:56:22.438Z,25.12
2019-06-10T15:58:27.606Z,25.06
2019-06-10T16:00:56.241Z,25.00
2019-06-10T16:03:25.767Z,24.92
2019-06-10T16:05:54.536Z,24.74
2019-06-10T16:08:23.121Z,24.74
2019-06-10T16:10:53.150Z,24.63
2019-06-10T16:13:25.551Z,24.55
2019-06-10T16:15:53.421Z,24.47
2019-06-10T16:18:26.038Z,24.41
2019-06-10T16:20:53.153Z,24.40
2019-06-10T16:23:24.504Z,24.29
2019-06-10T16:25:53.482Z,24.28
2019-06-10T16:28:23.391Z,24.22
2019-06-10T16:30:53.601Z,24.20
2019-06-10T16:33:27.277Z,24.11
2019-06-10T16:35:53.120Z,24.03
2019-06-10T16:38:24.156Z,23.83
2019-06-10T16:40:53.765Z,23.83
2019-06-10T16:43:24.429Z,23.78
2019-06-10T16:45:53.058Z,23.68
2019-06-10T16:48:22.202Z,23.58
2019-06-10T16:50:54.324Z,23.52
2019-06-10T16:53:26.729Z,23.43
2019-06-10T16:55:53.818Z,23.35
2019-06-10T16:58:25.359Z,23.25
2019-06-10T17:00:52.913Z,23.20
2019-06-10T17:03:25.077Z,23.09
2019-06-10T17:05:53.330Z,23.02
2019-06-10T17:08:24.933Z,22.94
2019-06-10T17:10:52.797Z,22.78
2019-06-10T17:13:25.250Z,22.78
2019-06-10T17:15:53.940Z,22.79
2019-06-10T17:18:23.583Z,22.74
2019-06-10T17:20:53.646Z,22.69
2019-06-10T17:23:26.674Z,22.66
2019-06-10T17:25:56.163Z,22.58
2019-06-10T17:28:29.766Z,22.52
2019-06-10T17:30:57.286Z,22.42
2019-06-10T17:33:27.799Z,22.38
2019-06-10T17:35:57.078Z,22.32
2019-06-10T17:38:26.883Z,22.27
2019-06-10T17:40:55.629Z,22.06
2019-06-10T17:43:25.211Z,22.06
2019-06-10T17:45:53.984Z,22.01
2019-06-10T17:48:33.776Z,22.01
2019-06-10T17:51:02.645Z,21.93
2019-06-10T17:53:34.711Z,21.85
2019-06-10T17:56:03.324Z,21.81
2019-06-10T17:58:48.770Z,21.78
2019-06-10T18:01:02.649Z,21.72
2019-06-10T18:03:31.450Z,21.62
2019-06-10T18:06:02.563Z,21.62
2019-06-10T18:08:32.337Z,21.57
2019-06-10T18:11:03.075Z,21.53
2019-06-10T18:13:34.697Z,21.50
2019-06-10T18:16:03.373Z,21.46
2019-06-10T18:18:35.648Z,21.43
2019-06-10T18:21:03.372Z,21.38
2019-06-10T18:23:35.061Z,21.35
2019-06-10T18:26:03.871Z,21.29
2019-06-10T18:28:45.528Z,21.24
2019-06-10T18:31:02.898Z,21.15
2019-06-10T18:33:34.511Z,21.09
2019-06-10T18:36:02.038Z,21.04
2019-06-10T18:38:33.945Z,20.98
2019-06-10T18:41:03.142Z,20.95
2019-06-10T18:43:32.561Z,20.93
2019-06-10T18:46:03.515Z,20.88
2019-06-10T18:48:36.012Z,20.86
2019-06-10T18:51:02.699Z,20.83
2019-06-10T18:53:34.487Z,20.85
2019-06-10T18:56:01.758Z,20.81
2019-06-10T18:58:33.003Z,20.78
2019-06-10T19:01:07.204Z,20.76
2019-06-10T19:03:34.616Z,20.73
2019-06-10T19:06:01.806Z,20.72
2019-06-10T19:08:33.704Z,20.68
2019-06-10T19:11:02.464Z,20.68
2019-06-10T19:13:34.382Z,20.67
2019-06-10T19:16:03.298Z,20.63
2019-06-10T19:18:32.035Z,20.58
2019-06-10T19:21:04.306Z,20.55
2019-06-10T19:23:34.736Z,20.53
2019-06-10T19:26:02.956Z,20.46
2019-06-10T19:28:33.861Z,20.50
2019-06-10T19:31:02.454Z,20.45
2019-06-10T19:33:34.110Z,20.41
2019-06-10T19:36:02.259Z,20.35
2019-06-10T19:38:32.457Z,20.29
2019-06-10T19:41:02.729Z,20.33
2019-06-10T19:43:34.489Z,20.33
2019-06-10T19:46:04.709Z,20.42
2019-06-10T19:48:37.718Z,20.50
2019-06-10T19:51:03.713Z,20.51
2019-06-10T19:53:33.082Z,20.47
2019-06-10T19:56:02.812Z,20.56
2019-06-10T19:58:32.302Z,20.55
2019-06-10T20:01:01.164Z,20.63
2019-06-10T20:03:29.797Z,20.68
2019-06-10T20:05:58.430Z,20.74
2019-06-10T20:08:27.119Z,20.81
2019-06-10T20:11:03.456Z,20.81
2019-06-10T20:13:32.560Z,20.82
2019-06-10T20:16:03.024Z,20.77
2019-06-10T20:18:33.244Z,20.78
2019-06-10T20:21:02.738Z,20.76
2019-06-10T20:23:33.299Z,20.79
2019-06-10T20:26:02.252Z,20.77
2019-06-10T20:28:32.166Z,20.72
2019-06-10T20:31:00.965Z,20.70
2019-06-10T20:33:37.083Z,20.63
2019-06-10T20:36:07.416Z,20.65
2019-06-10T20:38:35.502Z,20.66
2019-06-10T20:41:05.281Z,20.61
2019-06-10T20:43:33.951Z,20.61
2019-06-10T20:46:05.785Z,20.68
2019-06-10T20:48:33.482Z,20.55
2019-06-10T20:51:02.990Z,20.47
2019-06-10T20:53:33.716Z,20.41
2019-06-10T20:56:03.889Z,20.35
2019-06-10T20:58:33.199Z,20.12
2019-06-10T21:01:04.583Z,19.88
2019-06-10T21:03:32.561Z,19.71
2019-06-10T21:06:03.648Z,19.68
2019-06-10T21:08:33.985Z,19.60
2019-06-10T21:11:03.077Z,19.55
2019-06-10T21:13:32.935Z,19.61
2019-06-10T21:16:03.824Z,19.70
2019-06-10T21:18:33.137Z,19.69
2019-06-10T21:21:01.973Z,19.81
2019-06-10T21:23:30.645Z,19.83
2019-06-10T21:25:59.265Z,19.90
2019-06-10T21:28:27.914Z,19.84
2019-06-10T21:30:58.876Z,19.89
2019-06-10T21:33:26.909Z,19.97
2019-06-10T21:35:55.565Z,19.97
2019-06-10T21:38:24.279Z,20.00
2019-06-10T21:40:54.217Z,20.02
2019-06-10T21:43:22.975Z,20.05
2019-06-10T21:45:57.414Z,20.06
2019-06-10T21:48:23.042Z,20.09
2019-06-10T21:50:55.613Z,20.04
2019-06-10T21:53:22.487Z,19.98
2019-06-10T21:55:53.543Z,19.96
2019-06-10T21:58:22.536Z,19.91
2019-06-10T22:01:03.440Z,19.87
2019-06-10T22:03:23.467Z,19.83
2019-06-10T22:05:53.680Z,19.79
2019-06-10T22:08:22.414Z,19.73
2019-06-10T22:10:54.634Z,19.69
2019-06-10T22:13:22.382Z,19.61
2019-06-10T22:15:54.790Z,19.55
2019-06-10T22:18:22.869Z,19.57
2019-06-10T22:20:56.066Z,19.55
2019-06-10T22:23:23.268Z,19.49
2019-06-10T22:25:55.666Z,19.44
2019-06-10T22:28:22.598Z,19.40
2019-06-10T22:30:55.646Z,19.41
2019-06-10T22:33:22.595Z,19.44
2019-06-10T22:35:55.389Z,19.45
2019-06-10T22:38:22.285Z,19.39
2019-06-10T22:40:53.645Z,19.36
2019-06-10T22:43:23.506Z,19.36
2019-06-10T22:45:54.162Z,19.38
2019-06-10T22:48:22.647Z,19.37
2019-06-10T22:50:51.355Z,19.36
2019-06-10T22:53:22.978Z,19.33
2019-06-10T22:55:53.030Z,19.29
2019-06-10T22:58:23.634Z,19.24
2019-06-10T23:00:53.199Z,19.16
2019-06-10T23:03:21.984Z,19.11
2019-06-10T23:05:50.769Z,19.02
2019-06-10T23:08:19.455Z,18.95
2019-06-10T23:10:48.516Z,18.91
2019-06-10T23:13:17.321Z,18.87
2019-06-10T23:15:45.882Z,18.80
2019-06-10T23:18:14.679Z,18.78
2019-06-10T23:20:43.329Z,18.76
2019-06-10T23:23:12.931Z,18.70
2019-06-10T23:25:42.933Z,18.70
2019-06-10T23:28:12.971Z,18.68
2019-06-10T23:30:42.625Z,18.70
2019-06-10T23:33:12.594Z,18.75
2019-06-10T23:35:43.162Z,18.78
2019-06-10T23:38:13.265Z,18.81
2019-06-10T23:40:42.970Z,18.87
2019-06-10T23:43:13.177Z,18.94
2019-06-10T23:45:42.510Z,18.93
2019-06-10T23:48:13.355Z,18.98
2019-06-10T23:50:43.694Z,18.91
2019-06-10T23:53:13.109Z,18.86
2019-06-10T23:55:42.749Z,18.78
2019-06-10T23:58:12.875Z,18.70
